Time;durP1;ratioP1;P1;durP2;ratioP2;P2;SDS_P1;SDS_P2;PMS_P1;PMS_P2;Temp;Humidity;BMP_temperature;BMP_pressure;BME280_temperature;BME280_humidity;BME280_pressure;Samples;Min_cycle;Max_cycle;Signal;HPM_P1;HPM_P2
2021/07/23 00:00:09;;;;;;;1.75;1.22;;;;;;;20.05;49.07;100215.94;1729568;81;21524;-81
2021/07/23 00:02:38;;;;;;;2.60;0.70;;;;;;;20.23;48.68;100214.24;1684898;83;21002;-82
2021/07/23 00:05:05;;;;;;;3.60;1.25;;;;;;;20.28;48.67;100220.23;1702194;82;21544;-82
2021/07/23 00:07:31;;;;;;;4.00;1.27;;;;;;;20.28;48.87;100216.72;1713962;83;21083;-82
2021/07/23 00:09:57;;;;;;;;;;;;;;;20.24;49.19;100213.70;1717999;82;21656;-82
2021/07/23 00:12:24;;;;;;;1.87;1.12;;;;;;;20.29;48.96;100218.36;1744395;80;20109;-82
2021/07/23 00:14:49;;;;;;;5.42;1.25;;;;;;;20.15;49.62;100219.29;1766730;79;21016;-79
2021/07/23 00:17:15;;;;;;;;;;;;;;;20.03;49.62;100218.89;1774314;80;21008;-82
2021/07/23 00:19:42;;;;;;;5.28;0.90;;;;;;;20.00;49.45;100215.88;1776851;79;20156;-82
2021/07/23 00:22:08;;;;;;;;;;;;;;;19.82;49.65;100223.27;1728733;82;20986;-81
2021/07/23 00:24:34;;;;;;;5.35;1.05;;;;;;;19.72;49.87;100220.93;1734411;81;20195;-80
2021/07/23 00:27:00;;;;;;;1.35;0.65;;;;;;;19.59;50.17;100220.77;1720235;82;21524;-81
2021/07/23 00:29:27;;;;;;;9.48;1.10;;;;;;;19.56;50.48;100219.39;1727328;81;20971;-81
2021/07/23 00:31:54;;;;;;;3.02;1.17;;;;;;;19.68;50.42;100226.02;1752857;80;21559;-82
2021/07/23 00:34:21;;;;;;;4.37;0.68;;;;;;;19.81;49.91;100222.16;1760536;79;21721;-81
2021/07/23 00:36:47;;;;;;;1.05;0.65;;;;;;;19.84;49.62;100234.64;1755484;80;21524;-81
2021/07/23 00:39:13;;;;;;;4.78;0.88;;;;;;;19.80;49.54;100228.66;1740206;81;20995;-81
2021/07/23 00:41:39;;;;;;;;;;;;;;;19.65;49.77;100227.35;1747081;81;21052;-80
2021/07/23 00:44:05;;;;;;;1.95;0.88;;;;;;;19.45;50.26;100223.03;1751023;81;20244;-82
2021/07/23 00:46:36;;;;;;;3.27;0.90;;;;;;;19.19;50.79;100224.55;1730770;81;21099;-81
2021/07/23 00:49:02;;;;;;;1.62;0.75;;;;;;;19.01;51.03;100228.36;1712451;81;21612;-81
2021/07/23 00:51:29;;;;;;;1.50;1.10;;;;;;;18.82;51.72;100231.30;1723740;81;21504;-80
2021/07/23 00:53:56;;;;;;;2.50;0.68;;;;;;;18.69;51.79;100228.90;1733758;81;21043;-82
2021/07/23 00:56:23;;;;;;;3.70;0.50;;;;;;;18.55;52.64;100224.87;1741713;81;21045;-83
2021/07/23 00:58:50;;;;;;;2.70;0.60;;;;;;;18.53;52.74;100231.05;1748209;81;21040;-82
2021/07/23 01:01:16;;;;;;;3.55;1.35;;;;;;;18.46;52.86;100227.98;1739549;81;20941;-81
2021/07/23 01:03:43;;;;;;;2.00;0.62;;;;;;;18.34;53.11;100225.86;1744352;81;21057;-82
2021/07/23 01:06:12;;;;;;;3.58;0.88;;;;;;;18.17;53.44;100223.13;1741551;81;21161;-83
2021/07/23 01:08:39;;;;;;;2.77;0.70;;;;;;;18.03;54.06;100218.55;1744091;81;21021;-82
2021/07/23 01:11:06;;;;;;;2.08;0.78;;;;;;;17.87;54.45;100224.70;1702285;81;21091;-83
2021/07/23 01:13:52;;;;;;;1.90;1.00;;;;;;;17.69;54.92;100216.23;1723953;81;21009;-82
2021/07/23 01:16:19;;;;;;;3.20;1.00;;;;;;;17.63;55.28;100223.40;1747409;81;20981;-82
2021/07/23 01:18:47;;;;;;;3.70;0.93;;;;;;;17.53;55.62;100229.09;1750747;81;21037;-83
2021/07/23 01:21:15;;;;;;;5.50;0.80;;;;;;;17.47;55.97;100228.16;1751572;81;21454;-82
2021/07/23 01:23:43;;;;;;;5.55;1.02;;;;;;;17.41;56.58;100229.92;1740989;80;21000;-82
2021/07/23 01:26:11;;;;;;;1.87;1.17;;;;;;;17.39;56.28;100229.88;1735283;81;21124;-82
2021/07/23 01:28:40;;;;;;;2.27;1.35;;;;;;;17.32;56.51;100233.50;1742836;81;21032;-83
2021/07/23 01:31:11;;;;;;;1.05;0.60;;;;;;;17.32;56.47;100232.69;1728632;81;21109;-81
2021/07/23 01:33:38;;;;;;;1.22;0.72;;;;;;;17.32;56.85;100227.30;1731761;81;21045;-82
2021/07/23 01:36:07;;;;;;;2.72;0.65;;;;;;;17.35;56.67;100230.04;1708153;82;21025;-81
2021/07/23 01:38:37;;;;;;;3.08;0.98;;;;;;;17.35;56.99;100230.04;1698988;83;21077;-82
2021/07/23 01:41:04;;;;;;;2.47;0.72;;;;;;;17.32;56.76;100228.11;1703123;82;21109;-81
2021/07/23 01:43:33;;;;;;;4.90;1.02;;;;;;;17.29;57.18;100229.95;1700037;82;21081;-80
2021/07/23 01:45:59;;;;;;;1.75;0.93;;;;;;;17.34;57.08;100235.96;1699918;83;21025;-80
2021/07/23 01:48:44;;;;;;;2.85;1.30;;;;;;;17.63;56.71;100231.48;1688886;83;21126;-81
2021/07/23 01:51:25;;;;;;;4.75;0.82;;;;;;;18.04;55.67;100226.92;1688642;83;21033;-81
2021/07/23 01:53:52;;;;;;;3.47;0.60;;;;;;;18.29;54.70;100225.78;1685001;83;21122;-83
2021/07/23 01:56:22;;;;;;;1.62;0.98;;;;;;;18.40;54.42;100228.95;1709788;82;21034;-81
2021/07/23 01:58:48;;;;;;;0.82;0.65;;;;;;;18.58;53.91;100229.79;1718662;82;21483;-82
2021/07/23 02:01:14;;;;;;;;;;;;;;;18.67;53.67;100225.62;1690477;83;21039;-81
2021/07/23 02:03:43;;;;;;;2.27;0.70;;;;;;;17.90;53.27;100093.46;1695793;83;20199;-80
2021/07/23 02:06:09;;;;;;;4.25;1.60;;;;;;;18.62;53.56;100228.23;1693120;83;21763;-81
2021/07/23 02:08:36;;;;;;;1.52;0.88;;;;;;;18.62;53.63;100229.58;1692978;83;21083;-81
2021/07/23 02:11:03;;;;;;;3.67;0.90;;;;;;;18.64;53.54;100229.62;1717236;81;21182;-81
2021/07/23 02:13:31;;;;;;;1.37;0.65;;;;;;;18.61;53.41;100225.23;1695824;83;21563;-80
2021/07/23 02:16:04;;;;;;;5.95;1.40;;;;;;;18.57;53.28;100224.09;1698515;83;21489;-81
2021/07/23 02:18:31;;;;;;;2.67;0.90;;;;;;;18.60;53.23;100226.31;1675293;83;21514;-80
2021/07/23 02:20:58;;;;;;;1.75;1.05;;;;;;;18.52;52.98;100234.28;1679321;84;21109;-81
2021/07/23 02:23:25;;;;;;;2.80;1.02;;;;;;;18.48;53.06;100231.78;1700247;83;21052;-81
2021/07/23 02:25:53;;;;;;;2.30;0.85;;;;;;;18.39;53.46;100234.05;1712982;82;21017;-79
2021/07/23 02:28:19;;;;;;;2.45;0.82;;;;;;;18.32;53.23;100229.33;1713036;82;21020;-80
2021/07/23 02:30:49;;;;;;;2.58;0.85;;;;;;;18.23;53.48;100226.22;1750519;80;21029;-81
2021/07/23 02:33:20;;;;;;;3.52;0.90;;;;;;;18.26;53.05;100227.06;1734220;80;21648;-81
2021/07/23 02:35:47;;;;;;;3.42;0.57;;;;;;;18.23;52.98;100223.52;1727198;82;21037;-80
2021/07/23 02:38:14;;;;;;;1.50;0.80;;;;;;;18.24;53.08;100225.14;1722764;82;21034;-81
2021/07/23 02:40:42;;;;;;;2.75;0.78;;;;;;;18.25;53.35;100223.26;1752501;80;21084;-80
2021/07/23 02:43:08;;;;;;;1.77;0.53;;;;;;;18.19;53.10;100225.05;1713135;82;21085;-80
2021/07/23 02:45:36;;;;;;;2.35;0.80;;;;;;;18.15;53.53;100223.08;1719018;82;21033;-86
2021/07/23 02:48:04;;;;;;;1.32;0.90;;;;;;;18.09;53.20;100222.17;1722773;82;21053;-82
2021/07/23 02:50:30;;;;;;;4.65;0.95;;;;;;;18.06;53.19;100223.48;1749368;80;21545;-83
2021/07/23 02:52:56;;;;;;;1.02;0.82;;;;;;;18.02;53.26;100222.30;1704480;84;21065;-82
2021/07/23 02:55:23;;;;;;;2.00;0.60;;;;;;;18.08;53.21;100216.47;1693523;83;21120;-80
2021/07/23 02:57:50;;;;;;;6.00;1.05;;;;;;;18.18;52.92;100223.96;1713985;82;21470;-82
2021/07/23 03:00:19;;;;;;;2.58;1.07;;;;;;;18.32;52.32;100221.77;1689601;83;21189;-82
2021/07/23 03:02:46;;;;;;;3.15;1.07;;;;;;;18.42;52.22;100224.13;1721594;81;20997;-81
2021/07/23 03:05:12;;;;;;;3.33;1.37;;;;;;;18.62;51.71;100225.53;1705053;82;21053;-83
2021/07/23 03:07:39;;;;;;;0.88;0.80;;;;;;;18.94;50.88;100228.52;1722367;81;21131;-81
2021/07/23 03:10:06;;;;;;;1.98;0.93;;;;;;;19.27;50.08;100226.85;1696272;82;21136;-81
2021/07/23 03:12:36;;;;;;;3.77;0.85;;;;;;;19.70;49.18;100233.34;1707268;82;21048;-81
2021/07/23 03:15:05;;;;;;;4.83;0.68;;;;;;;20.19;48.35;100229.88;1724786;81;21569;-82
2021/07/23 03:17:31;;;;;;;0.95;0.90;;;;;;;20.67;46.88;100226.85;1718929;82;20965;-81
2021/07/23 03:19:59;;;;;;;1.32;0.95;;;;;;;21.08;46.18;100225.81;1725346;81;21181;-81
2021/07/23 03:22:27;;;;;;;3.80;1.02;;;;;;;21.39;44.89;100225.98;1727438;81;20980;-81
2021/07/23 03:24:56;;;;;;;5.35;1.00;;;;;;;21.64;44.76;100222.60;1726851;82;21045;-87
2021/07/23 03:27:24;;;;;;;3.30;1.00;;;;;;;22.01;43.93;100222.21;1728629;82;21121;-80
2021/07/23 03:29:52;;;;;;;0.95;0.80;;;;;;;22.40;43.10;100223.14;1726719;81;21086;-86
2021/07/23 03:32:18;;;;;;;1.27;0.82;;;;;;;22.68;42.39;100219.08;1745366;81;22202;-84
2021/07/23 03:34:44;;;;;;;1.57;1.00;;;;;;;22.94;41.72;100218.50;1750501;80;21035;-85
2021/07/23 03:37:13;;;;;;;4.50;1.15;;;;;;;23.08;41.71;100222.33;1770888;80;21095;-79
2021/07/23 03:39:41;;;;;;;1.67;0.75;;;;;;;23.35;41.10;100221.73;1760893;80;21083;-78
2021/07/23 03:42:09;;;;;;;2.05;0.88;;;;;;;23.59;40.70;100222.73;1760204;80;21604;-80
2021/07/23 03:44:37;;;;;;;7.33;0.78;;;;;;;23.86;39.98;100223.72;1767170;80;20998;-81
2021/07/23 03:47:03;;;;;;;1.75;0.50;;;;;;;24.08;39.83;100223.89;1765068;80;21198;-80
2021/07/23 03:49:30;;;;;;;3.30;0.55;;;;;;;24.27;39.26;100227.58;1749624;80;21078;-80
2021/07/23 03:51:56;;;;;;;3.02;0.78;;;;;;;24.50;38.67;100218.43;1764313;80;21007;-81
2021/07/23 03:54:23;;;;;;;2.50;0.88;;;;;;;24.69;38.30;100217.22;1753105;80;20993;-79
2021/07/23 03:56:50;;;;;;;4.55;0.90;;;;;;;24.84;38.16;100221.16;1765467;80;21015;-81
2021/07/23 03:59:18;;;;;;;3.85;0.50;;;;;;;25.00;37.85;100224.58;1765783;80;21061;-79
2021/07/23 04:01:50;;;;;;;3.62;0.57;;;;;;;25.08;37.72;100224.50;1765253;80;21046;-80
2021/07/23 04:04:20;;;;;;;4.58;0.65;;;;;;;25.16;37.56;100227.15;1765688;80;21534;-79
2021/07/23 04:06:47;;;;;;;1.70;0.33;;;;;;;25.28;37.67;100222.69;1750683;80;21036;-81
2021/07/23 04:09:13;;;;;;;2.33;0.57;;;;;;;25.37;37.55;100220.42;1748191;80;21027;-80
2021/07/23 04:11:49;;;;;;;1.87;0.78;;;;;;;25.37;37.18;100220.42;1764021;80;21102;-80
2021/07/23 04:14:17;;;;;;;2.10;0.50;;;;;;;25.32;37.52;100223.20;1762539;80;21129;-79
2021/07/23 04:16:45;;;;;;;5.47;0.60;;;;;;;25.40;37.48;100221.74;1758313;80;21046;-80
2021/07/23 04:19:13;;;;;;;2.77;0.57;;;;;;;25.45;36.99;100220.33;1762528;80;20987;-78
2021/07/23 04:21:50;;;;;;;6.60;0.53;;;;;;;25.35;36.82;100224.52;1765926;80;21176;-80
2021/07/23 04:24:18;;;;;;;3.62;0.75;;;;;;;25.36;37.16;100217.41;1758581;80;21047;-79
2021/07/23 04:26:44;;;;;;;2.27;0.30;;;;;;;25.50;36.53;100216.71;1761552;80;20996;-79
2021/07/23 04:29:11;;;;;;;1.47;0.50;;;;;;;25.63;36.61;100209.98;1718387;81;21243;-81
2021/07/23 04:31:37;;;;;;;4.45;0.50;;;;;;;25.86;35.68;100211.60;1722358;82;21044;-82
2021/07/23 04:34:03;;;;;;;1.30;0.20;;;;;;;25.98;35.67;100213.39;1721384;81;21015;-78
2021/07/23 04:36:35;;;;;;;1.55;0.30;;;;;;;26.08;34.95;100208.90;1739561;82;21053;-79
2021/07/23 04:39:12;;;;;;;3.15;0.60;;;;;;;26.08;35.04;100207.53;1698041;82;21007;-78
2021/07/23 04:41:41;;;;;;;0.85;0.20;;;;;;;26.12;34.84;100214.02;1725806;82;21075;-78
2021/07/23 04:44:08;;;;;;;4.20;0.30;;;;;;;26.03;35.93;100213.86;1725452;81;21624;-79
2021/07/23 04:46:35;;;;;;;2.37;0.35;;;;;;;26.14;34.87;100214.53;1738476;82;21072;-79
2021/07/23 04:49:02;;;;;;;0.53;0.40;;;;;;;26.31;34.63;100205.81;1745129;82;21057;-79
2021/07/23 04:51:35;;;;;;;2.55;0.30;;;;;;;26.39;34.46;100203.77;1745301;81;21028;-79
2021/07/23 04:54:20;;;;;;;5.10;0.53;;;;;;;26.28;34.54;100209.96;1736130;82;21609;-79
2021/07/23 04:56:58;;;;;;;0.78;0.55;;;;;;;25.97;34.77;100202.76;1711226;82;21454;-81
2021/07/23 04:59:25;;;;;;;2.90;0.62;;;;;;;25.89;35.33;100207.50;1720929;82;20991;-79
2021/07/23 05:01:52;;;;;;;1.25;0.40;;;;;;;25.82;35.51;100205.11;1729427;81;21043;-80
2021/07/23 05:04:19;;;;;;;1.57;0.33;;;;;;;25.77;35.79;100207.94;1736154;81;21017;-81
2021/07/23 05:06:45;;;;;;;1.77;0.53;;;;;;;25.72;35.69;100210.16;1716487;81;21463;-81
2021/07/23 05:09:12;;;;;;;5.65;0.72;;;;;;;25.67;36.64;100212.14;1743002;81;20990;-80
2021/07/23 05:11:41;;;;;;;0.93;0.30;;;;;;;25.76;35.54;100218.02;1725468;81;21561;-77
2021/07/23 05:14:07;;;;;;;2.50;0.40;;;;;;;25.80;35.61;100214.16;1722983;81;21507;-93
2021/07/23 05:16:36;;;;;;;1.62;0.30;;;;;;;25.77;35.73;100214.20;1734202;81;21058;-80
2021/07/23 05:19:05;;;;;;;0.72;0.30;;;;;;;25.72;35.78;100217.55;1728258;82;20981;-78
2021/07/23 05:21:32;;;;;;;1.05;0.40;;;;;;;25.64;36.40;100212.19;1696454;83;21208;-80
2021/07/23 05:24:03;;;;;;;2.42;0.50;;;;;;;25.62;36.29;100214.40;1738826;81;21058;-81
2021/07/23 05:26:27;;;;;;;2.05;0.40;;;;;;;25.74;36.39;100220.23;1726212;82;21572;-80
2021/07/23 05:28:55;;;;;;;5.05;0.50;;;;;;;25.62;36.57;100219.86;1710899;82;21021;-79
2021/07/23 05:31:21;;;;;;;1.42;0.23;;;;;;;25.56;36.90;100225.09;1737161;81;21032;-79
2021/07/23 05:33:49;;;;;;;2.70;0.40;;;;;;;25.59;36.79;100218.50;1733663;81;21005;-76
2021/07/23 05:36:16;;;;;;;1.85;0.40;;;;;;;25.46;37.13;100217.84;1748308;81;21068;-79
2021/07/23 05:38:41;;;;;;;1.17;0.65;;;;;;;25.38;37.30;100220.66;1733801;82;21429;-78
2021/07/23 05:41:09;;;;;;;2.27;0.70;;;;;;;25.32;37.68;100221.83;1730655;81;21594;-79
2021/07/23 05:43:35;;;;;;;3.37;0.65;;;;;;;25.42;37.33;100221.70;1732912;81;21067;-78
2021/07/23 05:46:05;;;;;;;2.72;0.50;;;;;;;25.49;37.24;100219.20;1731679;80;21081;-82
2021/07/23 05:48:40;;;;;;;3.30;0.93;;;;;;;25.55;37.01;100216.66;1738108;82;21695;-80
2021/07/23 05:51:09;;;;;;;4.00;0.80;;;;;;;25.55;37.10;100224.84;1728626;81;21028;-79
2021/07/23 05:53:36;;;;;;;9.95;0.85;;;;;;;25.45;37.30;100222.50;1721871;82;21069;-81
2021/07/23 05:56:03;;;;;;;0.68;0.25;;;;;;;25.41;37.47;100215.17;1740455;80;21383;-80
2021/07/23 05:58:31;;;;;;;1.12;0.50;;;;;;;25.46;37.51;100223.30;1752932;80;21105;-80
2021/07/23 06:01:03;;;;;;;2.70;0.40;;;;;;;25.57;37.80;100216.62;1743530;80;21511;-79
2021/07/23 06:03:30;;;;;;;1.05;0.20;;;;;;;25.75;37.13;100217.77;1724728;82;21554;-81
2021/07/23 06:05:56;;;;;;;2.42;0.40;;;;;;;25.92;36.93;100216.47;1724450;82;21012;-81
2021/07/23 06:08:22;;;;;;;7.05;0.35;;;;;;;25.99;36.92;100225.12;1706218;83;21014;-80
2021/07/23 06:10:48;;;;;;;1.45;0.30;;;;;;;26.16;36.14;100224.08;1726787;82;21038;-79
2021/07/23 06:13:14;;;;;;;6.22;0.65;;;;;;;26.36;35.67;100220.21;1745429;81;21737;-82
2021/07/23 06:15:40;;;;;;;2.35;0.30;;;;;;;26.43;35.91;100222.58;1747776;80;21035;-83
2021/07/23 06:18:07;;;;;;;1.32;0.30;;;;;;;26.60;35.45;100217.41;1744443;81;21508;-81
2021/07/23 06:20:33;;;;;;;0.78;0.30;;;;;;;26.73;35.29;100219.09;1741474;80;21051;-79
2021/07/23 06:22:59;;;;;;;3.42;0.37;;;;;;;26.81;34.62;100221.16;1752922;80;21054;-81
2021/07/23 06:25:26;;;;;;;1.07;0.40;;;;;;;26.71;35.28;100224.05;1761325;80;21482;-81
2021/07/23 06:27:52;;;;;;;5.17;0.30;;;;;;;26.51;35.44;100225.19;1759488;80;22120;-80
2021/07/23 06:30:19;;;;;;;1.20;0.40;;;;;;;26.42;36.14;100219.58;1753836;80;21082;-80
2021/07/23 06:32:45;;;;;;;4.15;0.30;;;;;;;26.46;35.70;100218.43;1720890;82;21523;-83
2021/07/23 06:35:11;;;;;;;1.67;0.50;;;;;;;26.49;35.80;100217.84;1709220;82;21066;-80
2021/07/23 06:37:37;;;;;;;1.82;0.23;;;;;;;26.58;35.69;100219.59;1715546;82;21054;-78
2021/07/23 06:40:06;;;;;;;3.15;0.98;;;;;;;26.56;34.61;100213.62;1721116;82;21093;-79
2021/07/23 06:42:35;;;;;;;5.37;1.15;;;;;;;26.44;34.23;100215.19;1720976;82;21098;-80
2021/07/23 06:45:01;;;;;;;2.67;0.62;;;;;;;26.42;35.00;100211.38;1691769;83;21528;-80
2021/07/23 06:47:27;;;;;;;2.85;0.90;;;;;;;26.48;34.17;100210.18;1690665;83;21059;-80
2021/07/23 06:49:55;;;;;;;8.25;0.85;;;;;;;26.32;34.07;100217.82;1737359;81;21023;-79
2021/07/23 06:52:21;;;;;;;1.80;0.68;;;;;;;26.24;34.23;100208.94;1741313;81;21071;-81
2021/07/23 06:54:49;;;;;;;2.02;0.75;;;;;;;26.25;34.14;100205.64;1741463;81;21635;-83
2021/07/23 06:57:15;;;;;;;3.27;1.25;;;;;;;26.16;35.18;100204.13;1741078;82;21002;-82
2021/07/23 06:59:43;;;;;;;2.52;0.85;;;;;;;26.24;35.32;100202.11;1740720;81;21383;-82
2021/07/23 07:02:09;;;;;;;3.83;1.07;;;;;;;26.38;34.33;100202.16;1741420;81;20997;-80
2021/07/23 07:04:37;;;;;;;5.25;1.00;;;;;;;26.45;35.31;100201.77;1739641;81;21110;-81
2021/07/23 07:07:07;;;;;;;1.52;0.40;;;;;;;26.59;34.24;100198.53;1738431;81;21034;-82
2021/07/23 07:09:36;;;;;;;1.37;0.40;;;;;;;26.55;33.59;100196.95;1742661;81;21118;-79
2021/07/23 07:12:03;;;;;;;3.87;0.53;;;;;;;26.57;33.10;100198.02;1731990;82;21055;-82
2021/07/23 07:14:29;;;;;;;0.70;0.23;;;;;;;26.60;33.17;100201.57;1730866;81;21036;-82
2021/07/23 07:16:56;;;;;;;0.60;0.23;;;;;;;26.60;32.87;100198.27;1741031;81;21029;-81
2021/07/23 07:19:22;;;;;;;1.70;0.45;;;;;;;26.52;33.44;100192.63;1739099;82;21121;-81
2021/07/23 07:21:49;;;;;;;2.17;0.30;;;;;;;26.49;32.91;100203.62;1741291;81;20955;-80
2021/07/23 07:24:21;;;;;;;1.27;0.10;;;;;;;26.53;33.85;100189.61;1725495;82;20991;-83
2021/07/23 07:26:49;;;;;;;1.37;0.10;;;;;;;26.60;31.97;100191.44;1719224;82;20988;-83
2021/07/23 07:29:17;;;;;;;2.83;0.10;;;;;;;26.53;32.07;100195.08;1692095;83;21057;-80
2021/07/23 07:31:45;;;;;;;2.05;0.10;;;;;;;26.55;32.87;100199.69;1719718;81;21060;-80
2021/07/23 07:34:12;;;;;;;4.67;0.10;;;;;;;26.71;32.05;100200.81;1724985;81;21105;-79
2021/07/23 07:36:38;;;;;;;1.52;0.15;;;;;;;26.68;32.33;100200.07;1757758;80;21054;-79
2021/07/23 07:39:04;;;;;;;0.33;0.13;;;;;;;26.59;32.32;100199.37;1737098;81;21072;-79
2021/07/23 07:41:31;;;;;;;2.20;0.10;;;;;;;26.48;32.38;100201.98;1738479;81;21077;-77
2021/07/23 07:43:58;;;;;;;1.37;0.10;;;;;;;26.37;32.80;100199.16;1725356;81;21577;-78
2021/07/23 07:46:27;;;;;;;0.33;0.00;;;;;;;26.30;33.12;100201.48;1738074;80;21044;-79
2021/07/23 07:48:54;;;;;;;1.92;0.10;;;;;;;26.22;32.74;100202.40;1738060;81;20994;-78
2021/07/23 07:51:20;;;;;;;1.27;0.10;;;;;;;26.09;32.71;100205.88;1738060;81;21079;-78
2021/07/23 07:53:47;;;;;;;0.62;0.00;;;;;;;25.95;32.77;100196.78;1729083;81;21569;-80
2021/07/23 07:56:14;;;;;;;2.37;0.08;;;;;;;25.76;32.47;100205.73;1731949;81;21069;-76
2021/07/23 07:58:41;;;;;;;1.42;0.10;;;;;;;25.54;32.38;100205.47;1737383;81;21064;-78
2021/07/23 08:01:08;;;;;;;1.52;0.10;;;;;;;25.35;33.04;100202.70;1740121;80;21086;-77
2021/07/23 08:03:35;;;;;;;3.12;0.10;;;;;;;25.26;33.72;100206.63;1762986;80;21000;-77
2021/07/23 08:06:18;;;;;;;0.85;0.10;;;;;;;25.25;34.29;100203.63;1749907;81;21000;-78
2021/07/23 08:08:38;;;;;;;1.85;0.10;;;;;;;25.21;33.45;100196.55;1752806;80;21079;-79
2021/07/23 08:11:04;;;;;;;1.15;0.10;;;;;;;25.16;33.32;100202.60;1757986;80;21294;-79
2021/07/23 08:13:31;;;;;;;0.15;0.00;;;;;;;25.11;33.73;100205.38;1739144;81;21692;-79
2021/07/23 08:15:59;;;;;;;0.90;0.25;;;;;;;25.12;33.65;100207.02;1720993;81;21182;-80
2021/07/23 08:18:25;;;;;;;1.90;0.00;;;;;;;25.15;33.86;100218.72;1729736;81;21632;-79
2021/07/23 08:20:59;;;;;;;0.17;0.00;;;;;;;25.14;34.10;100208.34;1731017;81;21001;-79
2021/07/23 08:23:24;;;;;;;1.75;0.10;;;;;;;25.15;33.44;100211.34;1741702;81;21360;-81
2021/07/23 08:25:50;;;;;;;0.55;0.10;;;;;;;25.02;33.63;100209.30;1733766;81;21037;-78
2021/07/23 08:28:20;;;;;;;3.33;0.13;;;;;;;24.95;33.34;100214.27;1734682;82;21065;-82
2021/07/23 08:30:46;;;;;;;0.60;0.10;;;;;;;24.89;33.33;100209.42;1737086;81;21321;-80
2021/07/23 08:33:13;;;;;;;5.83;0.10;;;;;;;24.84;33.45;100207.53;1760845;80;21032;-78
2021/07/23 08:35:41;;;;;;;4.53;0.10;;;;;;;24.80;32.88;100217.95;1733523;81;21126;-77
2021/07/23 08:38:07;;;;;;;0.40;0.10;;;;;;;24.75;33.66;100215.26;1725582;81;21507;-79
2021/07/23 08:40:34;;;;;;;1.77;0.10;;;;;;;24.72;33.43;100214.48;1725605;81;21065;-79
2021/07/23 08:43:02;;;;;;;1.17;0.10;;;;;;;24.68;33.85;100211.52;1727557;81;21211;-76
2021/07/23 08:45:29;;;;;;;2.80;0.15;;;;;;;24.73;33.27;100209.28;1723244;81;21058;-80
2021/07/23 08:47:56;;;;;;;0.33;0.10;;;;;;;24.75;33.33;100200.27;1731824;81;21123;-79
2021/07/23 08:50:24;;;;;;;2.75;0.10;;;;;;;24.75;33.99;100209.28;1732647;81;21079;-79
2021/07/23 08:52:55;;;;;;;0.55;0.10;;;;;;;24.77;33.29;100213.06;1696489;83;21116;-79
2021/07/23 08:55:24;;;;;;;3.62;0.23;;;;;;;24.76;33.95;100206.00;1732565;81;20980;-76
2021/07/23 08:57:52;;;;;;;0.57;0.10;;;;;;;24.82;34.05;100204.84;1732740;81;21100;-78
2021/07/23 09:00:22;;;;;;;1.25;0.10;;;;;;;24.94;34.10;100203.92;1731785;81;21598;-79
2021/07/23 09:02:56;;;;;;;3.25;0.23;;;;;;;25.06;33.77;100202.97;1731120;81;21054;-78
2021/07/23 09:05:34;;;;;;;0.45;0.10;;;;;;;25.07;33.12;100195.59;1717075;82;21189;-80
2021/07/23 09:08:18;;;;;;;0.57;0.15;;;;;;;25.00;34.02;100200.04;1729854;81;21111;-83
2021/07/23 09:10:49;;;;;;;1.45;0.10;;;;;;;24.97;33.55;100195.15;1728869;83;21100;-81
2021/07/23 09:13:23;;;;;;;1.62;0.20;;;;;;;24.89;34.02;100186.80;1721905;81;21028;-80
2021/07/23 09:15:50;;;;;;;3.67;0.37;;;;;;;24.85;34.29;100194.19;1728697;81;21490;-83
2021/07/23 09:18:30;;;;;;;1.02;0.10;;;;;;;24.81;34.62;100180.88;1728740;81;21007;-78
2021/07/23 09:21:03;;;;;;;1.42;0.25;;;;;;;24.74;34.73;100187.76;1736702;81;21024;-76
2021/07/23 09:23:37;;;;;;;2.40;0.20;;;;;;;24.75;35.08;100183.39;1733212;81;21076;-78
2021/07/23 09:26:17;;;;;;;2.85;0.10;;;;;;;24.85;35.27;100182.48;1722966;81;21028;-80
2021/07/23 09:28:46;;;;;;;0.40;0.20;;;;;;;24.99;35.17;100169.77;1745314;81;21144;-82
2021/07/23 09:31:22;;;;;;;2.30;0.10;;;;;;;25.03;34.94;100181.75;1732145;80;21072;-78
2021/07/23 09:33:59;;;;;;;2.20;0.20;;;;;;;24.95;35.07;100182.36;1739023;81;21156;-82
2021/07/23 09:36:49;;;;;;;4.03;0.10;;;;;;;24.91;35.46;100175.06;1740918;81;21023;-82
2021/07/23 09:39:18;;;;;;;5.78;0.28;;;;;;;24.96;35.29;100179.08;1742747;82;21521;-89
2021/07/23 09:41:52;;;;;;;0.30;0.10;;;;;;;24.91;35.28;100175.86;1746075;82;21020;-86
2021/07/23 09:44:18;;;;;;;1.35;0.10;;;;;;;24.83;35.10;100173.77;1741222;82;21081;-79
2021/07/23 09:46:46;;;;;;;0.30;0.10;;;;;;;24.76;35.17;100177.38;1744312;82;21076;-83
2021/07/23 09:49:28;;;;;;;1.17;0.05;;;;;;;24.73;35.16;100174.66;1738877;81;21139;-85
2021/07/23 09:52:02;;;;;;;0.60;0.10;;;;;;;24.78;35.75;100160.19;1739711;81;22112;-89
2021/07/23 09:54:29;;;;;;;1.98;0.17;;;;;;;24.90;35.87;100159.79;1744726;81;20997;-85
2021/07/23 09:56:55;;;;;;;0.80;0.10;;;;;;;24.99;35.82;100164.31;1743657;81;20981;-83
2021/07/23 09:59:48;;;;;;;1.85;0.10;;;;;;;25.05;35.40;100167.80;1744552;82;21041;-81
2021/07/23 10:02:21;;;;;;;1.20;0.10;;;;;;;25.07;35.06;100161.51;1741263;81;20986;-84
2021/07/23 10:05:08;;;;;;;3.25;0.20;;;;;;;25.03;35.21;100157.21;1730654;82;21067;-86
2021/07/23 10:07:52;;;;;;;0.93;0.20;;;;;;;25.02;35.35;100154.20;1718616;82;21012;-87
2021/07/23 10:10:21;;;;;;;0.57;0.10;;;;;;;25.05;35.40;100145.46;1722410;82;21130;-86
2021/07/23 10:12:50;;;;;;;1.75;0.10;;;;;;;25.08;35.60;100150.07;1744332;81;21024;-87
2021/07/23 10:15:18;;;;;;;1.12;0.20;;;;;;;25.06;35.34;100149.80;1740529;81;21001;-86
2021/07/23 10:17:47;;;;;;;3.10;0.10;;;;;;;25.08;35.02;100148.70;1746186;82;21072;-94
2021/07/23 10:20:19;;;;;;;1.45;0.20;;;;;;;25.11;35.42;100149.47;1742756;81;21031;-88
2021/07/23 10:22:51;;;;;;;3.40;0.23;;;;;;;25.22;35.29;100149.09;1722553;82;21039;-85
2021/07/23 10:25:18;;;;;;;2.58;0.10;;;;;;;25.31;35.40;100152.55;1722230;82;21039;-86
2021/07/23 10:27:48;;;;;;;2.85;0.20;;;;;;;25.32;34.51;100155.00;1708681;82;21400;-86
2021/07/23 10:30:42;;;;;;;4.58;0.23;;;;;;;25.24;34.67;100147.44;1742968;82;21629;-87
2021/07/23 10:33:16;;;;;;;1.67;0.15;;;;;;;25.18;35.03;100145.84;1730715;81;21045;-85
2021/07/23 10:35:42;;;;;;;1.52;0.30;;;;;;;25.22;34.83;100146.36;1701727;81;21610;-85
2021/07/23 10:38:19;;;;;;;2.87;0.20;;;;;;;25.32;34.90;100140.55;1704445;83;21020;-87
2021/07/23 10:40:46;;;;;;;2.55;0.20;;;;;;;25.44;35.23;100140.93;1730408;79;21131;-87
2021/07/23 10:46:50;;;;;;;0.50;0.17;;;;;;;25.51;34.57;100137.86;1797427;77;23587;-85
2021/07/23 10:49:40;;;;;;;1.35;0.55;;;;;;;25.42;34.17;100144.50;1783382;79;21087;-86
2021/07/23 10:52:06;;;;;;;4.75;0.30;;;;;;;25.39;34.61;100137.73;1787983;79;21037;-84
2021/07/23 10:54:36;;;;;;;0.68;0.10;;;;;;;25.35;34.13;100136.66;1786920;79;21088;-90
2021/07/23 10:57:09;;;;;;;4.45;0.40;;;;;;;25.28;34.38;100139.48;1757254;80;21108;-81
2021/07/23 10:59:47;;;;;;;2.80;0.25;;;;;;;25.21;34.52;100124.27;1785906;79;21044;-81
2021/07/23 11:02:19;;;;;;;0.55;0.10;;;;;;;25.21;35.15;100129.72;1755962;79;20954;-80
2021/07/23 11:04:46;;;;;;;3.80;0.20;;;;;;;25.28;35.07;100128.58;1751784;80;21075;-80
2021/07/23 11:07:15;;;;;;;0.82;0.20;;;;;;;25.32;34.70;100120.90;1710133;82;21052;-82
2021/07/23 11:09:45;;;;;;;1.72;0.20;;;;;;;25.29;34.56;100116.02;1707309;82;21193;-82
2021/07/23 11:12:26;;;;;;;2.92;0.28;;;;;;;25.26;34.35;100115.25;1706174;82;21058;-82
2021/07/23 11:14:59;;;;;;;1.45;0.20;;;;;;;25.16;34.58;100112.61;1704582;83;21119;-82
2021/07/23 11:17:28;;;;;;;0.95;0.20;;;;;;;25.12;34.93;100111.01;1704068;83;21547;-83
2021/07/23 11:19:58;;;;;;;1.77;0.33;;;;;;;25.13;35.06;100106.36;1707150;83;21004;-84
2021/07/23 11:22:32;;;;;;;0.60;0.20;;;;;;;25.14;35.03;100111.53;1699836;83;21053;-83
2021/07/23 11:25:03;;;;;;;1.10;0.20;;;;;;;25.11;35.13;100105.84;1702066;83;21026;-82
2021/07/23 11:27:32;;;;;;;0.93;0.30;;;;;;;25.11;35.46;100099.02;1704681;83;21558;-82
2021/07/23 11:30:16;;;;;;;5.60;0.30;;;;;;;25.15;35.73;100096.80;1709156;83;20999;-82
2021/07/23 11:32:55;;;;;;;3.92;0.20;;;;;;;25.25;35.44;100110.33;1705008;83;21123;-81
2021/07/23 11:35:25;;;;;;;0.90;0.47;;;;;;;25.35;35.09;100094.37;1705473;82;21100;-83
2021/07/23 11:37:53;;;;;;;6.72;0.82;;;;;;;25.36;35.04;100093.28;1708026;82;20998;-83